ASIAQ
Weather Now
GREENLAND SURVEY
Sorting:
| Location |
Updated [WGT/WGST] |
Temperature [°C] |
Wind [m/s] |
Air pressure [hPa] |
Relative humidity [%] |
Precipitation [mm] |
| Present | Wind chill | Speed | Max |
| Qaanaaq | 04.09 11:00 | 4,8 | -0,1 | 7,9 ⇐ | 10,1 | 1005 | 61 | 0,0 |
| Kitsissut | 04.09 11:00 | 2,2 | -4,8 | 12,4 ⇖ | 18,0 | 1005 | 92 | n/a |
| Kitsissorsuit | 04.09 11:00 | 2,3 | -4,1 | 10,3 ⇖ | 11,8 | 1009 | 86 | n/a |
| Upernavik | 04.09 11:00 | 4,3 | 2,5 | 2,1 ⇗ | 3,5 | 999 | 59 | 0,0 |
| Qaarsut | 04.09 11:00 | 4,4 | -1,0 | 9,2 ⇐ | 12,5 | 1005 | 34 | 0,0 |
| Nuussuaq | 04.09 11:00 | 4,3 | 0,9 | 4,1 ⇖ | 5,7 | 1013 | 61 | n/a |
| Qeqertarsuaq | 04.09 11:00 | 3,8 | -1,1 | 7,3 ⇐ | 10,6 | 1015 | 61 | 0,0 |
| Ilulissat | 04.09 11:00 | 3,0 | -2,0 | 6,8 ⇐ | 9,3 | 1013 | 35 | 0,0 |
| Qasigiannguit | 04.09 11:10 | 5,1 | 2,9 | 2,6 ⇙ | 3,8 | 1014 | 50 | n/a |
| Aasiaat | 04.09 11:00 | 4,0 | 0,8 | 3,7 ⇙ | 5,8 | 1011 | 80 | 0,0 |
| Kangerlussuaq | 04.09 11:00 | 3,3 | 0,3 | 3,2 ⇙ | 4,2 | 1010 | 62 | n/a |
| Sisimiut | 04.09 11:00 | 5,9 | 5,0 | 1,5 ⇒ | 2,1 | 1014 | 61 | 0,0 |
| Maniitsoq | 04.09 11:00 | 6,7 | 5,5 | 1,8 ⇗ | 2,2 | 1010 | 74 | 0,0 |
| Sioralik | 04.09 11:00 | 7,7 | 4,1 | 6,7 ⇙ | 8,2 | 1012 | 61 | n/a |
| Niaqornaa | 04.09 11:00 | 5,4 | 0,8 | 7,5 ⇙ | 8,6 | 1006 | 63 | n/a |
| Qeqertannguaq | 04.09 11:10 | 5,8 | n/a | 1,2 ⇙ | 1,8 | n/a | 81 | n/a |
| Kapisillit | 04.09 11:00 | 4,4 | 1,6 | 3,2 ⇙ | 4,8 | 1004 | 79 | 0,0 |
| Kuanninnguit | 04.09 11:00 | 5,1 | 5,1 | 0,9 ⇖ | 4,0 | 1006 | 76 | n/a |
| Nuuk City | 04.09 11:10 | 6,4 | 3,6 | 3,9 ⇙ | 5,7 | 1002 | 72 | n/a |
| Ukiiviit | 04.09 11:00 | 5,3 | 2,2 | 4,1 ⇓ | 5,1 | 1008 | 99 | n/a |
| Paamiut | 04.09 11:00 | 3,7 | 2,6 | 1,4 ⇘ | 1,9 | 1006 | 100 | 0,0 |
| Narsarsuaq | 04.09 11:00 | 6,8 | n/a | 0,4 ⇘ | 1,0 | 1006 | 84 | n/a |
| Narsaq | 04.09 11:00 | 4,2 | n/a | 1,1 ⇒ | 2,7 | 1006 | 91 | 0,0 |
| Nunarsuit | 04.09 11:00 | 4,5 | -0,9 | 9,3 ⇘ | 11,3 | 1006 | 97 | n/a |
| Upernaviarsuk | 04.09 11:00 | 7,3 | 6,6 | 1,5 ⇘ | 3,3 | 1008 | 85 | n/a |
| Qaqortoq | 04.09 11:00 | 6,4 | 3,7 | 3,7 ⇗ | 5,2 | 1002 | 94 | 0,0 |
| Angisoq | 04.09 11:00 | 5,1 | 2,2 | 3,6 ⇗ | 4,6 | 1008 | 99 | n/a |
| Prins Christian Sund | 04.09 11:00 | 5,3 | 1,6 | 5,1 ⇓ | 7,2 | 999 | 74 | n/a |
| Nanortalik | 04.09 11:00 | 7,3 | 6,6 | 1,4 ⇑ | 3,0 | 1008 | 97 | n/a |
| Ikermiuarsuk | 04.09 11:00 | 3,7 | 0,5 | 3,6 ⇓ | 4,6 | 1006 | 77 | n/a |
| Ikermit | 04.09 11:00 | 1,6 | -4,1 | 7,7 ⇘ | 9,8 | 1000 | 47 | n/a |
| Kulusuk | 04.09 11:00 | 4,8 | 3,0 | 2,2 ⇒ | 2,8 | 1005 | 77 | n/a |
| Tasiilaq | 04.09 11:00 | 5,4 | 4,6 | 1,4 ⇘ | 3,8 | 1003 | 64 | 0,0 |
| Aputiteeq | 04.09 11:00 | 5,1 | 1,6 | 4,6 ⇓ | 11,3 | 1007 | 63 | n/a |
| Ittoqqortoormiit | 04.09 11:00 | 4,8 | -0,1 | 7,9 ⇙ | 11,1 | 1006 | 62 | n/a |
| Nerlerit Inaat | 04.09 11:00 | 5,7 | 1,9 | 6,0 ⇙ | 7,0 | 1014 | 59 | n/a |
| Daneborg | 04.09 11:00 | 2,7 | 0,6 | 2,0 ⇓ | 3,0 | 1012 | 52 | n/a |
| Zackenberg | 04.09 11:00 | 3,0 | n/a | 2,2 ⇖ | 3,6 | 1009 | 47 | 0,0 |
| Danmarkshavn | 04.09 11:00 | n/a | n/a | n/a | 5,0 | n/a | n/a | n/a |
| Henrik Krøyer Holme | 04.09 11:00 | -2,9 | -7,9 | 4,0 ⇗ | 6,0 | 1009 | 95 | n/a |
| Station Nord | 04.09 11:00 | -1,8 | -5,2 | 3,0 ⇒ | 3,0 | 1006 | 82 | n/a |
| Kap Morris Jesup | 04.09 11:00 | -1,6 | -7,0 | 5,0 ⇒ | 6,0 | 1008 | 100 | n/a |
Advanced version ⤻
Data source - Operated by - Disclaimer ▼